Time,TemperatureF,DewpointF,PressureIn,WindDirection,WindDirectionDegrees,WindSpeedMPH,WindSpeedGustMPH,Humidity,HourlyPrecipIn,Conditions,Clouds,dailyrainin,SoftwareType,DateUTC
2013-04-09 00:00:00,56.7,36.7,29.90,SW,225,4.3,7.0,47,0.00,,CLR,0.00,VWS V14.01,2013-04-09 07:00:00,
2013-04-09 00:10:00,56.5,36.5,29.90,WSW,257,3.8,5.9,47,0.00,,CLR,0.00,VWS V14.01,2013-04-09 07:10:00,
2013-04-09 00:20:00,56.3,36.9,29.90,WNW,286,3.8,4.8,48,0.00,,CLR,0.00,VWS V14.01,2013-04-09 07:20:00,
2013-04-09 00:30:00,55.9,36.5,29.90,WSW,249,0.0,5.9,48,0.00,,CLR,0.00,VWS V14.01,2013-04-09 07:30:00,
2013-04-09 00:40:00,55.8,36.4,29.90,WNW,286,0.0,4.3,48,0.00,,CLR,0.00,VWS V14.01,2013-04-09 07:40:00,
2013-04-09 00:50:00,55.2,35.9,29.90,SSW,212,3.8,4.3,48,0.00,,CLR,0.00,VWS V14.01,2013-04-09 07:50:00,
2013-04-09 01:00:00,54.9,36.1,29.90,WSW,248,2.7,4.3,49,0.00,,CLR,0.00,VWS V14.01,2013-04-09 08:00:00,
2013-04-09 01:10:00,54.5,36.3,29.90,WNW,299,3.2,4.3,50,0.00,,CLR,0.00,VWS V14.01,2013-04-09 08:10:00,
2013-04-09 01:20:00,54.1,35.9,29.90,WSW,251,4.8,5.9,50,0.00,,CLR,0.00,VWS V14.01,2013-04-09 08:20:00,
2013-04-09 01:30:00,54.0,36.3,29.90,West,277,0.0,6.4,51,0.00,,CLR,0.00,VWS V14.01,2013-04-09 08:30:00,
2013-04-09 01:40:00,53.8,36.6,29.90,WNW,283,0.0,3.2,52,0.00,,CLR,0.00,VWS V14.01,2013-04-09 08:40:00,
2013-04-09 01:50:00,53.4,36.7,29.90,WNW,282,0.0,2.7,53,0.00,,CLR,0.00,VWS V14.01,2013-04-09 08:50:00,
2013-04-09 02:00:00,53.1,36.4,29.90,WNW,283,0.0,2.7,53,0.00,,CLR,0.00,VWS V14.01,2013-04-09 09:00:00,
2013-04-09 02:10:00,52.7,36.5,29.90,WNW,283,0.0,2.7,54,0.00,,CLR,0.00,VWS V14.01,2013-04-09 09:10:00,
2013-04-09 02:20:00,52.5,36.8,29.90,WNW,283,0.0,0.0,55,0.00,,CLR,0.00,VWS V14.01,2013-04-09 09:20:00,
2013-04-09 02:30:00,52.0,36.3,29.90,WNW,282,0.0,0.0,55,0.00,,CLR,0.00,VWS V14.01,2013-04-09 09:30:00,
2013-04-09 02:40:00,51.6,36.9,29.90,NNE,24,0.0,3.2,57,0.00,,CLR,0.00,VWS V14.01,2013-04-09 09:40:00,
2013-04-09 02:50:00,51.1,36.8,29.90,WNW,283,2.7,3.2,58,0.00,,CLR,0.00,VWS V14.01,2013-04-09 09:50:00,
2013-04-09 03:00:00,50.7,36.5,29.90,WNW,284,0.0,3.2,58,0.00,,CLR,0.00,VWS V14.01,2013-04-09 10:00:00,
2013-04-09 03:10:00,50.4,36.6,29.90,NW,310,0.0,4.8,59,0.00,,CLR,0.00,VWS V14.01,2013-04-09 10:10:00,
2013-04-09 03:20:00,50.0,35.8,29.90,NW,309,0.0,3.2,58,0.00,,CLR,0.00,VWS V14.01,2013-04-09 10:20:00,
2013-04-09 03:30:00,49.6,35.9,29.90,NW,309,0.0,2.7,59,0.00,,CLR,0.00,VWS V14.01,2013-04-09 10:30:00,
2013-04-09 03:40:00,49.3,35.6,29.90,NW,309,0.0,3.2,59,0.00,,CLR,0.00,VWS V14.01,2013-04-09 10:40:00,
2013-04-09 03:50:00,48.7,35.5,29.90,NNW,341,0.0,4.8,60,0.00,,CLR,0.00,VWS V14.01,2013-04-09 10:50:00,
2013-04-09 04:00:00,48.6,35.3,29.90,WNW,284,0.0,3.8,60,0.00,,CLR,0.00,VWS V14.01,2013-04-09 11:00:00,
2013-04-09 04:10:00,48.6,35.3,29.90,WNW,284,0.0,0.0,60,0.00,,CLR,0.00,VWS V14.01,2013-04-09 11:10:00,
2013-04-09 04:20:00,48.2,35.4,29.90,WNW,284,0.0,0.0,61,0.00,,CLR,0.00,VWS V14.01,2013-04-09 11:20:00,
2013-04-09 04:30:00,48.0,35.2,29.90,NW,306,0.0,2.7,61,0.00,,CLR,0.00,VWS V14.01,2013-04-09 11:30:00,
2013-04-09 04:40:00,47.8,35.5,29.90,NE,48,0.0,6.4,62,0.00,,CLR,0.00,VWS V14.01,2013-04-09 11:40:00,
2013-04-09 04:50:00,47.7,35.3,29.90,NE,48,0.0,3.2,62,0.00,,CLR,0.00,VWS V14.01,2013-04-09 11:50:00,
2013-04-09 05:00:00,47.5,35.1,29.90,NE,48,0.0,0.0,62,0.00,,CLR,0.00,VWS V14.01,2013-04-09 12:00:00,
2013-04-09 05:10:00,47.3,35.4,29.90,NE,49,0.0,0.0,63,0.00,,CLR,0.00,VWS V14.01,2013-04-09 12:10:00,
2013-04-09 05:20:00,47.1,35.2,29.90,NE,47,0.0,3.2,63,0.00,,CLR,0.00,VWS V14.01,2013-04-09 12:20:00,
2013-04-09 05:30:00,46.9,35.0,29.93,NE,47,0.0,2.7,63,0.00,,CLR,0.00,VWS V14.01,2013-04-09 12:30:00,
2013-04-09 05:40:00,46.6,34.7,29.93,NNE,12,0.0,4.8,63,0.00,,CLR,0.00,VWS V14.01,2013-04-09 12:40:00,
2013-04-09 05:50:00,46.4,34.5,29.93,ENE,60,0.0,5.9,63,0.00,,CLR,0.00,VWS V14.01,2013-04-09 12:50:00,
2013-04-09 06:10:00,46.0,34.6,29.93,NNW,327,0.0,4.3,64,0.00,,CLR,0.00,VWS V14.01,2013-04-09 13:10:00,
2013-04-09 06:20:00,45.7,33.8,29.93,North,0,0.0,4.3,63,0.00,,CLR,0.00,VWS V14.01,2013-04-09 13:20:00,
2013-04-09 06:30:00,45.5,33.7,29.93,NNW,340,0.0,4.3,63,0.00,,CLR,0.00,VWS V14.01,2013-04-09 13:30:00,
2013-04-09 06:40:00,45.5,33.7,29.96,NNW,339,3.2,4.8,63,0.00,,CLR,0.00,VWS V14.01,2013-04-09 13:40:00,
2013-04-09 06:50:00,45.7,33.8,29.96,NNW,345,3.2,4.3,63,0.00,,CLR,0.00,VWS V14.01,2013-04-09 13:50:00,
2013-04-09 07:00:00,46.0,34.2,29.96,North,356,0.0,4.3,63,0.00,,CLR,0.00,VWS V14.01,2013-04-09 14:00:00,
2013-04-09 07:10:00,46.6,34.7,29.96,NNW,334,3.2,4.8,63,0.00,,CLR,0.00,VWS V14.01,2013-04-09 14:10:00,
2013-04-09 07:20:00,47.5,35.5,29.96,North,6,4.8,5.9,63,0.00,,CLR,0.00,VWS V14.01,2013-04-09 14:20:00,
2013-04-09 07:30:00,48.9,36.1,29.96,NNW,340,4.3,6.4,61,0.00,,CLR,0.00,VWS V14.01,2013-04-09 14:30:00,
2013-04-09 07:50:00,50.9,37.1,29.96,NE,54,3.2,6.4,59,0.00,,CLR,0.00,VWS V14.01,2013-04-09 14:50:00,
2013-04-09 08:00:00,51.1,36.4,29.99,North,356,0.0,3.2,57,0.00,,CLR,0.00,VWS V14.01,2013-04-09 15:00:00,
2013-04-09 08:10:00,51.6,36.9,29.99,ENE,73,0.0,4.3,57,0.00,,CLR,0.00,VWS V14.01,2013-04-09 15:10:00,
2013-04-09 08:20:00,52.2,37.4,29.99,NE,55,3.2,6.4,57,0.00,,CLR,0.00,VWS V14.01,2013-04-09 15:20:00,
2013-04-09 08:30:00,53.6,36.9,29.99,NE,35,4.3,7.0,53,0.00,,CLR,0.00,VWS V14.01,2013-04-09 15:30:00,
2013-04-09 08:40:00,55.2,36.4,29.99,NE,43,6.4,9.7,49,0.00,,CLR,0.00,VWS V14.01,2013-04-09 15:40:00,
2013-04-09 08:50:00,56.1,36.7,29.99,NE,50,4.8,7.5,48,0.00,,CLR,0.00,VWS V14.01,2013-04-09 15:50:00,
2013-04-09 09:00:00,57.2,36.1,29.99,NNE,22,5.9,7.0,45,0.00,,CLR,0.00,VWS V14.01,2013-04-09 16:00:00,
2013-04-09 09:10:00,58.1,36.9,29.99,ENE,68,6.4,7.0,45,0.00,,CLR,0.00,VWS V14.01,2013-04-09 16:10:00,
2013-04-09 09:20:00,58.8,37.0,29.99,NE,54,3.8,9.9,44,0.00,,CLR,0.00,VWS V14.01,2013-04-09 16:20:00,
2013-04-09 09:30:00,59.2,35.5,29.99,NNE,33,0.0,7.0,41,0.00,,CLR,0.00,VWS V14.01,2013-04-09 16:30:00,
2013-04-09 09:40:00,59.9,36.2,30.02,East,89,6.4,7.5,41,0.00,,CLR,0.00,VWS V14.01,2013-04-09 16:40:00,
2013-04-09 09:50:00,60.6,34.9,30.02,ENE,71,0.0,6.4,38,0.00,,CLR,0.00,VWS V14.01,2013-04-09 16:50:00,
2013-04-09 10:00:00,61.7,33.8,29.99,East,94,3.8,6.4,35,0.00,,CLR,0.00,VWS V14.01,2013-04-09 17:00:00,
2013-04-09 10:10:00,62.2,34.3,30.02,ENE,67,0.0,7.0,35,0.00,,CLR,0.00,VWS V14.01,2013-04-09 17:10:00,
2013-04-09 10:20:00,62.8,34.0,30.02,ENE,74,3.8,4.8,34,0.00,,CLR,0.00,VWS V14.01,2013-04-09 17:20:00,
2013-04-09 10:30:00,63.3,34.5,30.02,ENE,76,3.2,6.4,34,0.00,,CLR,0.00,VWS V14.01,2013-04-09 17:30:00,
2013-04-09 10:40:00,63.9,36.4,30.02,South,169,4.8,9.1,36,0.00,,CLR,0.00,VWS V14.01,2013-04-09 17:40:00,
2013-04-09 10:50:00,64.0,38.6,30.02,South,189,3.2,9.9,39,0.00,,CLR,0.00,VWS V14.01,2013-04-09 17:50:00,
2013-04-09 11:00:00,64.4,37.6,30.02,SW,221,4.8,9.7,37,0.00,,CLR,0.00,VWS V14.01,2013-04-09 18:00:00,
2013-04-09 11:10:00,65.3,37.7,30.02,SW,218,3.8,7.0,36,0.00,,CLR,0.00,VWS V14.01,2013-04-09 18:10:00,
2013-04-09 11:20:00,65.8,37.5,30.02,WSW,249,7.5,7.5,35,0.00,,CLR,0.00,VWS V14.01,2013-04-09 18:20:00,
2013-04-09 11:30:00,67.1,37.8,29.99,SW,226,7.0,9.7,34,0.00,,CLR,0.00,VWS V14.01,2013-04-09 18:30:00,
2013-04-09 11:40:00,68.2,38.0,29.99,SW,228,2.7,9.9,33,0.00,,CLR,0.00,VWS V14.01,2013-04-09 18:40:00,
2013-04-09 11:50:00,68.4,37.4,29.99,South,171,7.0,12.1,32,0.00,,CLR,0.00,VWS V14.01,2013-04-09 18:50:00,
2013-04-09 12:00:00,68.5,36.7,29.99,South,186,7.0,13.2,31,0.00,,CLR,0.00,VWS V14.01,2013-04-09 19:00:00,
2013-04-09 12:10:00,68.2,37.2,29.99,SSW,210,7.5,12.6,32,0.00,,CLR,0.00,VWS V14.01,2013-04-09 19:10:00,
2013-04-09 12:20:00,68.2,37.2,29.99,WSW,248,7.5,13.2,32,0.00,,CLR,0.00,VWS V14.01,2013-04-09 19:20:00,
2013-04-09 12:30:00,68.7,36.9,29.99,SW,227,7.5,13.2,31,0.00,,CLR,0.00,VWS V14.01,2013-04-09 19:30:00,
2013-04-09 12:40:00,69.4,36.7,29.99,SSW,203,7.0,13.2,30,0.00,,CLR,0.00,VWS V14.01,2013-04-09 19:40:00,
2013-04-09 12:50:00,69.4,36.7,29.99,SW,233,7.0,13.2,30,0.00,,CLR,0.00,VWS V14.01,2013-04-09 19:50:00,
2013-04-09 13:00:00,68.9,36.2,29.99,SW,230,10.5,18.5,30,0.00,,CLR,0.00,VWS V14.01,2013-04-09 20:00:00,
2013-04-09 13:10:00,68.5,35.9,29.99,West,260,9.7,17.4,30,0.00,,CLR,0.00,VWS V14.01,2013-04-09 20:10:00,
2013-04-09 13:20:00,68.7,37.7,29.99,SW,215,10.5,13.2,32,0.00,,CLR,0.00,VWS V14.01,2013-04-09 20:20:00,
2013-04-09 13:30:00,68.9,38.6,29.96,WSW,241,8.6,15.8,33,0.00,,CLR,0.00,VWS V14.01,2013-04-09 20:30:00,
2013-04-09 13:40:00,69.1,38.0,29.96,South,191,10.5,15.8,32,0.00,,CLR,0.00,VWS V14.01,2013-04-09 20:40:00,
2013-04-09 13:50:00,70.2,39.0,29.96,South,172,9.1,13.2,32,0.00,,CLR,0.00,VWS V14.01,2013-04-09 20:50:00,
2013-04-09 14:00:00,70.9,37.9,29.96,SSW,211,7.5,14.8,30,0.00,,CLR,0.00,VWS V14.01,2013-04-09 21:00:00,
2013-04-09 14:10:00,71.6,34.9,29.96,WNW,291,4.8,15.8,26,0.00,,CLR,0.00,VWS V14.01,2013-04-09 21:10:00,
2013-04-09 14:20:00,72.3,34.6,29.96,West,280,14.2,17.4,25,0.00,,CLR,0.00,VWS V14.01,2013-04-09 21:20:00,
2013-04-09 14:30:00,72.1,34.4,29.96,WSW,237,15.3,17.4,25,0.00,,CLR,0.00,VWS V14.01,2013-04-09 21:30:00,
2013-04-09 14:40:00,72.1,34.4,29.96,SSW,199,9.7,18.0,25,0.00,,CLR,0.00,VWS V14.01,2013-04-09 21:40:00,
2013-04-09 14:50:00,71.8,34.1,29.96,SSW,211,16.9,16.9,25,0.00,,CLR,0.00,VWS V14.01,2013-04-09 21:50:00,
2013-04-09 15:00:00,70.7,34.2,29.96,SSW,211,15.3,16.9,26,0.00,,CLR,0.00,VWS V14.01,2013-04-09 22:00:00,
2013-04-09 15:10:00,70.9,35.3,29.96,SSW,198,12.6,15.8,27,0.00,,CLR,0.00,VWS V14.01,2013-04-09 22:10:00,
2013-04-09 15:20:00,70.5,35.0,29.96,South,180,4.3,16.9,27,0.00,,CLR,0.00,VWS V14.01,2013-04-09 22:20:00,
2013-04-09 15:30:00,70.7,36.0,29.96,South,189,14.8,18.0,28,0.00,,CLR,0.00,VWS V14.01,2013-04-09 22:30:00,
2013-04-09 15:40:00,70.7,35.1,29.96,SSW,197,15.3,15.8,27,0.00,,CLR,0.00,VWS V14.01,2013-04-09 22:40:00,
2013-04-09 15:50:00,70.9,35.3,29.96,South,172,9.1,15.8,27,0.00,,CLR,0.00,VWS V14.01,2013-04-09 22:50:00,
2013-04-09 16:00:00,70.7,35.1,29.93,WNW,282,6.4,16.4,27,0.00,,CLR,0.00,VWS V14.01,2013-04-09 23:00:00,
2013-04-09 16:10:00,71.1,35.4,29.93,SW,232,13.2,18.0,27,0.00,,CLR,0.00,VWS V14.01,2013-04-09 23:10:00,
2013-04-09 16:20:00,70.7,36.9,29.93,West,259,12.1,17.4,29,0.00,,CLR,0.00,VWS V14.01,2013-04-09 23:20:00,
2013-04-09 16:30:00,70.7,36.9,29.93,SSE,165,6.4,16.9,29,0.00,,CLR,0.00,VWS V14.01,2013-04-09 23:30:00,
2013-04-09 16:40:00,70.0,40.3,29.93,South,191,7.5,17.4,34,0.00,,CLR,0.00,VWS V14.01,2013-04-09 23:40:00,
2013-04-09 16:50:00,68.2,42.3,29.93,WSW,245,11.0,15.3,39,0.00,,CLR,0.00,VWS V14.01,2013-04-09 23:50:00,
2013-04-09 17:00:00,66.7,43.5,29.93,SW,226,9.7,16.4,43,0.00,,CLR,0.00,VWS V14.01,2013-04-10 00:00:00,
2013-04-09 17:10:00,66.2,43.7,29.93,SSW,213,12.1,15.8,44,0.00,,CLR,0.00,VWS V14.01,2013-04-10 00:10:00,
2013-04-09 17:20:00,65.7,43.8,29.93,WNW,293,9.1,15.3,45,0.00,,CLR,0.00,VWS V14.01,2013-04-10 00:20:00,
2013-04-09 17:30:00,65.5,44.2,29.93,South,187,9.7,15.3,46,0.00,,CLR,0.00,VWS V14.01,2013-04-10 00:30:00,
2013-04-09 17:40:00,64.8,44.1,29.93,SSW,205,9.7,15.3,47,0.00,,CLR,0.00,VWS V14.01,2013-04-10 00:40:00,
2013-04-09 17:50:00,64.4,44.3,29.93,WSW,245,5.9,10.5,48,0.00,,CLR,0.00,VWS V14.01,2013-04-10 00:50:00,
2013-04-09 18:00:00,63.7,44.7,29.96,SSE,151,4.3,9.1,50,0.00,,CLR,0.00,VWS V14.01,2013-04-10 01:00:00,
2013-04-09 18:10:00,63.5,45.1,29.93,SW,222,6.4,12.1,51,0.00,,CLR,0.00,VWS V14.01,2013-04-10 01:10:00,
2013-04-09 18:20:00,62.6,44.8,29.93,WSW,243,3.8,13.2,52,0.00,,CLR,0.00,VWS V14.01,2013-04-10 01:20:00,
2013-04-09 18:30:00,61.7,45.4,29.93,West,276,10.5,10.5,55,0.00,,CLR,0.00,VWS V14.01,2013-04-10 01:30:00,
2013-04-09 18:40:00,61.5,45.7,29.96,SSE,168,2.7,10.5,56,0.00,,CLR,0.00,VWS V14.01,2013-04-10 01:40:00,
2013-04-09 18:50:00,61.3,45.5,29.96,South,177,3.2,7.5,56,0.00,,CLR,0.00,VWS V14.01,2013-04-10 01:50:00,
2013-04-09 19:00:00,60.8,45.5,29.96,SSE,154,6.4,7.0,57,0.00,,CLR,0.00,VWS V14.01,2013-04-10 02:00:00,
2013-04-09 19:10:00,60.3,45.9,29.96,SSE,159,0.0,7.5,59,0.00,,CLR,0.00,VWS V14.01,2013-04-10 02:10:00,
2013-04-09 19:20:00,60.1,46.2,29.96,East,88,4.3,6.4,60,0.00,,CLR,0.00,VWS V14.01,2013-04-10 02:20:00,
2013-04-09 19:30:00,59.7,46.3,29.96,East,87,0.0,4.8,61,0.00,,CLR,0.00,VWS V14.01,2013-04-10 02:30:00,
2013-04-09 19:40:00,59.4,46.3,29.96,ENE,62,0.0,4.8,62,0.00,,CLR,0.00,VWS V14.01,2013-04-10 02:40:00,
2013-04-09 19:50:00,58.6,46.5,29.96,ENE,69,0.0,4.3,64,0.00,,CLR,0.00,VWS V14.01,2013-04-10 02:50:00,
2013-04-09 20:00:00,58.1,46.4,29.99,NNE,18,0.0,5.4,65,0.00,,CLR,0.00,VWS V14.01,2013-04-10 03:00:00,
2013-04-09 20:10:00,57.7,46.5,29.99,North,356,4.3,4.8,66,0.00,,CLR,0.00,VWS V14.01,2013-04-10 03:10:00,
2013-04-09 20:20:00,57.4,46.1,29.99,North,356,4.3,4.8,66,0.00,,CLR,0.00,VWS V14.01,2013-04-10 03:20:00,
2013-04-09 20:30:00,57.2,46.0,29.99,North,356,3.8,4.8,66,0.00,,CLR,0.00,VWS V14.01,2013-04-10 03:30:00,
2013-04-09 20:40:00,56.8,46.0,29.99,North,9,3.2,4.8,67,0.00,,CLR,0.00,VWS V14.01,2013-04-10 03:40:00,
2013-04-09 20:50:00,56.7,45.8,29.99,North,7,0.0,4.3,67,0.00,,CLR,0.00,VWS V14.01,2013-04-10 03:50:00,
2013-04-09 21:00:00,56.3,45.5,29.99,NW,309,3.8,4.8,67,0.00,,CLR,0.00,VWS V14.01,2013-04-10 04:00:00,
2013-04-09 21:10:00,56.1,45.3,30.02,NNE,14,3.2,4.8,67,0.00,,CLR,0.00,VWS V14.01,2013-04-10 04:10:00,
2013-04-09 21:20:00,55.9,45.2,30.02,North,5,0.0,3.2,67,0.00,,CLR,0.00,VWS V14.01,2013-04-10 04:20:00,
2013-04-09 21:30:00,55.6,45.2,30.02,North,356,3.8,4.3,68,0.00,,CLR,0.00,VWS V14.01,2013-04-10 04:30:00,
2013-04-09 21:40:00,55.4,45.0,30.02,North,5,4.8,6.4,68,0.00,,CLR,0.00,VWS V14.01,2013-04-10 04:40:00,
2013-04-09 21:50:00,55.0,44.7,30.02,WNW,296,0.0,4.8,68,0.00,,CLR,0.00,VWS V14.01,2013-04-10 04:50:00,
2013-04-09 22:00:00,54.7,44.3,30.02,ENE,61,0.0,5.9,68,0.00,,CLR,0.00,VWS V14.01,2013-04-10 05:00:00,
2013-04-09 22:10:00,54.5,44.2,30.02,West,281,2.7,3.8,68,0.00,,CLR,0.00,VWS V14.01,2013-04-10 05:10:00,
2013-04-09 22:20:00,54.5,44.5,30.02,North,7,3.2,7.5,69,0.00,,CLR,0.00,VWS V14.01,2013-04-10 05:20:00,
2013-04-09 22:30:00,54.0,43.7,30.02,NNE,22,4.8,7.5,68,0.00,,CLR,0.00,VWS V14.01,2013-04-10 05:30:00,
2013-04-09 22:40:00,54.1,43.4,30.02,NNE,14,3.8,9.9,67,0.00,,CLR,0.00,VWS V14.01,2013-04-10 05:40:00,
2013-04-09 22:50:00,54.5,43.4,30.02,NE,46,4.3,7.0,66,0.00,,CLR,0.00,VWS V14.01,2013-04-10 05:50:00,
2013-04-09 23:00:00,54.7,43.2,30.02,North,351,5.9,7.5,65,0.00,,CLR,0.00,VWS V14.01,2013-04-10 06:00:00,
2013-04-09 23:10:00,55.2,43.3,30.02,North,10,4.3,9.1,64,0.00,,CLR,0.00,VWS V14.01,2013-04-10 06:10:00,
2013-04-09 23:20:00,55.8,42.5,30.02,North,356,3.8,6.4,61,0.00,,CLR,0.00,VWS V14.01,2013-04-10 06:20:00,
2013-04-09 23:30:00,56.1,41.6,30.05,NNE,13,4.3,6.4,58,0.00,,CLR,0.00,VWS V14.01,2013-04-10 06:30:00,
2013-04-09 23:40:00,55.9,40.9,30.05,NNE,17,0.0,4.8,57,0.00,,CLR,0.00,VWS V14.01,2013-04-10 06:40:00,
2013-04-09 23:50:00,55.9,40.9,30.05,NNE,23,0.0,3.8,57,0.00,,CLR,0.00,VWS V14.01,2013-04-10 06:50:00,